createdAt,value
2018-12-27T00:00:32.149Z,68.67
2018-12-27T00:03:00.699Z,68.52
2018-12-27T00:05:29.208Z,68.34
2018-12-27T00:07:57.719Z,68.13
2018-12-27T00:10:26.261Z,67.95
2018-12-27T00:12:54.780Z,67.85
2018-12-27T00:15:23.283Z,67.88
2018-12-27T00:18:04.465Z,68.09
2018-12-27T00:20:32.977Z,68.36
2018-12-27T00:23:01.485Z,68.60
2018-12-27T00:28:04.324Z,68.74
2018-12-27T00:30:32.958Z,68.63
2018-12-27T00:35:36.014Z,68.43
2018-12-27T00:38:04.630Z,68.38
2018-12-27T00:40:33.306Z,68.44
2018-12-27T00:43:01.948Z,68.56
2018-12-27T00:45:30.595Z,68.54
2018-12-27T00:50:33.031Z,68.30
2018-12-27T00:55:36.247Z,68.39
2018-12-27T01:00:38.529Z,68.30
2018-12-27T01:03:26.399Z,68.30
2018-12-27T01:05:55.034Z,68.40
2018-12-27T01:08:23.671Z,68.44
2018-12-27T01:13:25.962Z,68.67
2018-12-27T01:15:54.598Z,68.79
2018-12-27T01:20:57.355Z,68.89
2018-12-27T01:26:00.089Z,68.93
2018-12-27T01:31:03.331Z,68.81
2018-12-27T01:36:06.093Z,68.72
2018-12-27T01:41:09.361Z,68.57
2018-12-27T01:46:12.427Z,68.65
2018-12-27T01:48:41.093Z,68.67
2018-12-27T01:51:09.729Z,68.56
2018-12-27T01:53:38.364Z,68.58
2018-12-27T01:56:07.045Z,68.60
2018-12-27T01:58:35.660Z,68.82
2018-12-27T02:01:04.289Z,68.89
2018-12-27T02:03:32.970Z,68.93
2018-12-27T02:06:01.599Z,68.94
2018-12-27T02:08:30.234Z,69.02
2018-12-27T02:13:32.964Z,69.28
2018-12-27T02:16:01.592Z,69.25
2018-12-27T02:21:04.798Z,69.25
2018-12-27T02:26:07.510Z,69.36
2018-12-27T02:28:36.198Z,69.33
2018-12-27T02:31:04.837Z,69.41
2018-12-27T02:33:35.411Z,69.43
2018-12-27T02:36:03.895Z,69.44
2018-12-27T02:38:32.518Z,69.63
2018-12-27T02:41:01.158Z,69.70
2018-12-27T02:46:04.169Z,69.81
2018-12-27T02:51:07.425Z,69.60
2018-12-27T02:56:10.649Z,69.58
2018-12-27T02:58:39.278Z,69.50
2018-12-27T03:01:07.945Z,69.56
2018-12-27T03:03:43.817Z,69.56
2018-12-27T03:06:06.939Z,69.58
2018-12-27T03:11:09.448Z,69.30
2018-12-27T03:13:38.079Z,69.12
2018-12-27T03:18:40.434Z,68.99
2018-12-27T03:21:09.069Z,69.17
2018-12-27T03:23:37.712Z,69.14
2018-12-27T03:26:06.342Z,69.10
2018-12-27T03:31:08.705Z,69.23
2018-12-27T03:33:37.339Z,69.13
2018-12-27T03:38:40.505Z,69.23
2018-12-27T03:41:09.160Z,69.18
2018-12-27T03:43:49.784Z,69.24
2018-12-27T03:46:08.135Z,69.31
2018-12-27T03:51:10.589Z,69.38
2018-12-27T03:53:39.221Z,69.50
2018-12-27T03:58:41.876Z,69.90
2018-12-27T04:01:10.501Z,70.00
2018-12-27T04:06:13.729Z,70.16
2018-12-27T04:08:42.407Z,70.24
2018-12-27T04:11:11.040Z,70.22
2018-12-27T04:13:39.670Z,70.22
2018-12-27T04:18:42.676Z,70.26
2018-12-27T04:24:25.276Z,70.44
2018-12-27T04:29:28.247Z,70.28
2018-12-27T04:32:36.795Z,70.29
2018-12-27T04:35:05.372Z,70.27
2018-12-27T04:37:33.873Z,70.25
2018-12-27T04:43:16.707Z,70.41
2018-12-27T04:48:18.847Z,70.46
2018-12-27T04:50:47.343Z,70.55
2018-12-27T04:55:49.453Z,70.76
2018-12-27T05:00:52.439Z,70.78
2018-12-27T05:05:54.969Z,70.80
2018-12-27T05:08:23.475Z,70.81
2018-12-27T05:10:52.029Z,70.79
2018-12-27T05:13:20.535Z,70.69
2018-12-27T05:15:49.049Z,70.63
2018-12-27T05:20:51.723Z,70.62
2018-12-27T05:23:20.313Z,70.53
2018-12-27T05:25:48.812Z,70.47
2018-12-27T05:28:17.322Z,70.41
2018-12-27T05:30:45.839Z,70.31
2018-12-27T05:33:14.355Z,70.22
2018-12-27T05:35:42.857Z,70.14
2018-12-27T05:38:30.811Z,70.12
2018-12-27T05:40:59.315Z,70.05
2018-12-27T05:43:27.839Z,69.93
2018-12-27T05:48:29.853Z,69.85
2018-12-27T05:53:32.872Z,69.90
2018-12-27T05:56:01.439Z,69.84
2018-12-27T05:58:29.943Z,69.79
2018-12-27T06:00:58.471Z,69.77
2018-12-27T06:03:27.042Z,69.80
2018-12-27T06:05:55.551Z,69.82
2018-12-27T06:08:24.060Z,69.76
2018-12-27T06:13:26.519Z,69.92
2018-12-27T06:15:55.030Z,70.00
2018-12-27T06:20:57.161Z,69.92
2018-12-27T06:23:25.728Z,69.92
2018-12-27T06:26:13.425Z,70.10
2018-12-27T06:28:42.074Z,70.09
2018-12-27T06:31:10.601Z,70.06
2018-12-27T06:33:39.119Z,69.96
2018-12-27T06:38:42.115Z,70.03
2018-12-27T06:41:10.664Z,70.19
2018-12-27T06:43:39.200Z,70.19
2018-12-27T06:46:07.719Z,70.26
2018-12-27T06:51:09.992Z,70.38
2018-12-27T06:53:40.561Z,70.34
2018-12-27T06:58:43.010Z,70.30
2018-12-27T07:03:45.629Z,70.35
2018-12-27T07:08:48.048Z,70.34
2018-12-27T07:13:51.184Z,70.18
2018-12-27T07:18:54.098Z,70.23
2018-12-27T07:21:22.668Z,70.26
2018-12-27T07:23:51.182Z,70.25
2018-12-27T07:26:19.687Z,70.26
2018-12-27T07:28:48.218Z,70.29
2018-12-27T07:31:16.721Z,70.34
2018-12-27T07:33:45.247Z,70.25
2018-12-27T07:38:47.541Z,70.23
2018-12-27T07:41:16.069Z,70.11
2018-12-27T07:43:44.599Z,70.02
2018-12-27T07:46:13.102Z,69.94
2018-12-27T07:48:41.612Z,69.94
2018-12-27T07:51:10.158Z,69.84
2018-12-27T07:53:38.654Z,69.85
2018-12-27T07:56:07.166Z,69.84
2018-12-27T08:01:09.679Z,69.85
2018-12-27T08:03:38.211Z,69.79
2018-12-27T08:06:06.710Z,69.67
2018-12-27T08:08:35.214Z,69.53
2018-12-27T08:13:38.069Z,69.71
2018-12-27T08:16:06.642Z,69.66
2018-12-27T08:18:35.140Z,69.67
2018-12-27T08:21:03.636Z,69.66
2018-12-27T08:26:06.263Z,69.50
2018-12-27T08:28:34.760Z,69.42
2018-12-27T08:33:37.168Z,69.38
2018-12-27T08:36:05.670Z,69.49
2018-12-27T08:41:08.711Z,69.54
2018-12-27T08:46:11.680Z,69.67
2018-12-27T08:48:40.198Z,69.73
2018-12-27T08:51:08.711Z,69.72
2018-12-27T08:53:37.198Z,69.58
2018-12-27T08:58:39.290Z,69.40
2018-12-27T09:03:41.692Z,69.48
2018-12-27T09:06:10.230Z,69.59
2018-12-27T09:08:38.814Z,69.64
2018-12-27T09:11:07.302Z,69.46
2018-12-27T09:21:38.625Z,69.11
2018-12-27T09:24:07.122Z,69.14
2018-12-27T09:29:09.140Z,69.24
2018-12-27T09:31:39.274Z,69.43
2018-12-27T09:34:07.973Z,69.50
2018-12-27T09:36:36.478Z,69.72
2018-12-27T09:39:45.019Z,70.30
2018-12-27T09:42:13.525Z,70.03
2018-12-27T09:44:42.029Z,69.90
2018-12-27T09:49:44.746Z,69.83
2018-12-27T09:52:13.254Z,69.71
2018-12-27T09:57:16.043Z,69.79
2018-12-27T10:02:18.495Z,69.17
2018-12-27T10:04:46.993Z,68.67
2018-12-27T10:09:49.503Z,67.59
2018-12-27T10:12:18.011Z,67.20
2018-12-27T10:17:20.453Z,66.57
2018-12-27T10:20:08.443Z,66.36
2018-12-27T10:22:36.940Z,66.36
2018-12-27T10:25:45.615Z,66.32
2018-12-27T10:28:14.119Z,66.15
2018-12-27T10:30:42.647Z,66.22
2018-12-27T10:33:11.178Z,66.22
2018-12-27T10:36:19.598Z,66.20
2018-12-27T10:41:22.341Z,66.54
2018-12-27T10:43:50.846Z,66.55
2018-12-27T10:48:53.312Z,66.58
2018-12-27T10:51:21.867Z,66.51
2018-12-27T10:53:50.364Z,66.40
2018-12-27T10:56:18.874Z,66.23
2018-12-27T11:03:56.350Z,66.23
2018-12-27T11:06:24.946Z,66.08
2018-12-27T11:08:53.434Z,66.17
2018-12-27T11:11:21.932Z,66.12
2018-12-27T11:13:50.448Z,65.82
2018-12-27T11:16:18.947Z,65.68
2018-12-27T11:18:47.445Z,65.46
2018-12-27T11:21:15.988Z,65.34
2018-12-27T11:23:44.482Z,65.02
2018-12-27T11:26:12.995Z,64.73
2018-12-27T11:28:41.515Z,64.56
2018-12-27T11:31:10.015Z,64.46
2018-12-27T11:33:38.516Z,64.38
2018-12-27T11:38:41.344Z,64.34
2018-12-27T11:41:09.842Z,64.39
2018-12-27T11:43:38.604Z,63.85
2018-12-27T11:46:07.097Z,63.58
2018-12-27T11:48:35.592Z,63.53
2018-12-27T11:51:04.142Z,63.43
2018-12-27T11:53:32.641Z,63.37
2018-12-27T11:56:01.201Z,63.25
2018-12-27T11:58:29.829Z,63.22
2018-12-27T12:00:58.324Z,63.10
2018-12-27T12:03:26.823Z,63.19
2018-12-27T12:05:55.355Z,63.32
2018-12-27T12:08:23.854Z,63.56
2018-12-27T12:10:52.392Z,63.65
2018-12-27T12:13:20.920Z,63.68
2018-12-27T12:15:49.433Z,63.58
2018-12-27T12:18:17.943Z,63.61
2018-12-27T12:23:20.112Z,63.49
2018-12-27T12:25:48.608Z,63.43
2018-12-27T12:30:50.900Z,63.22
2018-12-27T12:33:19.406Z,63.08
2018-12-27T12:35:47.964Z,63.00
2018-12-27T12:38:56.398Z,62.87
2018-12-27T12:41:24.907Z,62.63
2018-12-27T12:43:53.475Z,62.53
2018-12-27T12:46:21.904Z,62.17
2018-12-27T12:51:24.662Z,61.66
2018-12-27T12:53:53.263Z,61.38
2018-12-27T12:56:21.759Z,61.04
2018-12-27T12:58:50.252Z,60.37
2018-12-27T13:01:18.866Z,60.08
2018-12-27T13:03:47.368Z,59.44
2018-12-27T13:06:18.216Z,59.28
2018-12-27T13:11:19.590Z,58.91
2018-12-27T13:13:48.086Z,58.85
2018-12-27T13:16:16.604Z,58.43
2018-12-27T13:18:47.345Z,57.88
2018-12-27T13:21:15.327Z,57.50
2018-12-27T13:23:43.878Z,57.43
2018-12-27T13:26:12.380Z,57.11
2018-12-27T13:34:09.018Z,56.16
2018-12-27T13:36:37.635Z,55.54
2018-12-27T13:39:46.186Z,55.46
2018-12-27T13:42:14.821Z,55.25
2018-12-27T13:44:43.314Z,55.55
2018-12-27T13:47:11.846Z,55.54
2018-12-27T13:49:40.366Z,55.72
2018-12-27T13:52:16.355Z,56.02
2018-12-27T13:57:18.700Z,56.00
2018-12-27T13:59:47.195Z,55.69
2018-12-27T14:02:15.859Z,55.65
2018-12-27T14:04:44.365Z,55.55
2018-12-27T14:07:12.866Z,55.80
2018-12-27T14:09:41.490Z,56.41
2018-12-27T14:12:10.336Z,56.55
2018-12-27T14:14:38.832Z,55.99
2018-12-27T14:17:07.503Z,55.95
2018-12-27T14:19:35.999Z,56.03
2018-12-27T14:22:04.498Z,56.10
2018-12-27T14:24:33.046Z,55.94
2018-12-27T14:27:01.574Z,55.86
2018-12-27T14:29:30.072Z,56.14
2018-12-27T14:31:58.761Z,56.81
2018-12-27T14:34:27.256Z,57.01
2018-12-27T14:36:55.773Z,57.21
2018-12-27T14:39:24.304Z,57.74
2018-12-27T14:41:52.801Z,58.12
2018-12-27T14:44:21.299Z,58.39
2018-12-27T14:46:49.984Z,58.66
2018-12-27T14:49:58.426Z,58.83
2018-12-27T14:52:26.994Z,58.85
2018-12-27T14:54:55.494Z,58.73
2018-12-27T14:57:23.986Z,58.73
2018-12-27T14:59:52.616Z,58.68
2018-12-27T15:02:21.103Z,59.07
2018-12-27T15:04:49.598Z,59.05
2018-12-27T15:07:18.254Z,59.48
2018-12-27T15:09:46.748Z,59.74
2018-12-27T15:12:17.078Z,59.87
2018-12-27T15:14:45.616Z,60.16
2018-12-27T15:17:14.174Z,60.29
2018-12-27T15:19:42.612Z,60.47
2018-12-27T15:22:11.230Z,60.87
2018-12-27T15:24:39.729Z,61.19
2018-12-27T15:27:08.240Z,62.10
2018-12-27T15:29:36.872Z,62.03
2018-12-27T15:32:05.367Z,61.99
2018-12-27T15:34:33.860Z,61.99
2018-12-27T15:39:36.633Z,62.13
2018-12-27T15:42:05.192Z,62.17
2018-12-27T15:44:33.692Z,62.33
2018-12-27T15:47:02.186Z,62.41
2018-12-27T15:49:30.702Z,62.33
2018-12-27T15:51:59.198Z,62.47
2018-12-27T15:54:27.704Z,62.42
2018-12-27T15:56:56.328Z,62.56
2018-12-27T15:59:24.829Z,62.73
2018-12-27T16:01:53.335Z,62.68
2018-12-27T16:04:41.374Z,62.67
2018-12-27T16:07:09.880Z,62.81
2018-12-27T16:09:38.399Z,62.96
2018-12-27T16:14:44.502Z,63.17
2018-12-27T16:19:46.966Z,63.43
2018-12-27T16:22:15.468Z,63.73
2018-12-27T16:27:17.860Z,64.05
2018-12-27T16:29:46.358Z,64.06
2018-12-27T16:34:48.468Z,64.41
2018-12-27T16:37:16.984Z,64.41
2018-12-27T16:42:21.906Z,64.53
2018-12-27T16:44:49.909Z,64.48
2018-12-27T16:47:18.398Z,64.51
2018-12-27T16:49:46.894Z,64.51
2018-12-27T16:54:49.904Z,64.40
2018-12-27T16:57:19.905Z,64.43
2018-12-27T17:02:22.318Z,64.74
2018-12-27T17:04:50.948Z,64.90
2018-12-27T17:07:19.444Z,64.97
2018-12-27T17:09:47.943Z,65.03
2018-12-27T17:12:16.514Z,65.17
2018-12-27T17:14:45.023Z,65.31
2018-12-27T17:17:13.528Z,65.42
2018-12-27T17:19:42.098Z,65.57
2018-12-27T17:22:10.673Z,65.53
2018-12-27T17:24:39.267Z,65.55
2018-12-27T17:27:07.921Z,65.70
2018-12-27T17:29:36.429Z,65.75
2018-12-27T17:32:44.953Z,65.73
2018-12-27T17:35:13.456Z,65.84
2018-12-27T17:37:41.959Z,66.00
2018-12-27T17:40:10.575Z,66.16
2018-12-27T17:42:39.091Z,66.23
2018-12-27T17:45:19.662Z,66.32
2018-12-27T17:47:48.170Z,66.43
2018-12-27T17:50:16.672Z,66.67
2018-12-27T17:52:45.205Z,66.92
2018-12-27T17:55:13.707Z,67.22
2018-12-27T17:57:42.211Z,67.40
2018-12-27T18:03:04.296Z,67.36
2018-12-27T18:08:06.844Z,67.29
2018-12-27T18:13:09.057Z,67.27
2018-12-27T18:15:37.575Z,67.22
2018-12-27T18:20:40.576Z,67.12
2018-12-27T18:25:43.561Z,67.38
2018-12-27T18:30:45.782Z,67.53
2018-12-27T18:33:14.281Z,67.52
2018-12-27T18:38:16.697Z,67.58
2018-12-27T18:40:45.203Z,67.56
2018-12-27T18:45:48.242Z,67.70
2018-12-27T18:48:28.910Z,67.81
2018-12-27T18:50:57.475Z,67.84
2018-12-27T18:53:25.983Z,67.76
2018-12-27T18:55:54.533Z,67.89
2018-12-27T18:58:23.117Z,67.97
2018-12-27T19:00:51.629Z,68.02
2018-12-27T19:05:54.131Z,68.09
2018-12-27T19:11:35.676Z,68.49
2018-12-27T19:16:37.670Z,68.33
2018-12-27T19:19:25.563Z,68.42
2018-12-27T19:21:54.068Z,68.57
2018-12-27T19:24:22.568Z,68.62
2018-12-27T19:26:51.097Z,68.63
2018-12-27T19:29:21.365Z,68.64
2018-12-27T19:31:49.883Z,68.60
2018-12-27T19:34:18.478Z,68.44
2018-12-27T19:36:46.977Z,68.41
2018-12-27T19:39:15.479Z,68.26
2018-12-27T19:44:18.568Z,68.46
2018-12-27T19:46:47.155Z,68.62
2018-12-27T19:49:28.145Z,68.75
2018-12-27T19:54:32.022Z,69.02
2018-12-27T19:59:34.987Z,68.96
2018-12-27T20:07:31.733Z,68.96
2018-12-27T20:10:00.245Z,68.91
2018-12-27T20:12:28.961Z,68.81
2018-12-27T20:14:57.470Z,68.85
2018-12-27T20:17:25.969Z,68.94
2018-12-27T20:20:13.781Z,68.92
2018-12-27T20:22:42.285Z,68.80
2018-12-27T20:25:10.791Z,68.91
2018-12-27T20:30:32.824Z,68.93
2018-12-27T20:35:35.628Z,68.84
2018-12-27T20:40:38.813Z,68.81
2018-12-27T20:43:07.351Z,69.03
2018-12-27T20:45:35.854Z,69.10
2018-12-27T20:48:04.356Z,69.24
2018-12-27T20:50:45.840Z,69.30
2018-12-27T20:53:14.345Z,69.19
2018-12-27T20:55:42.851Z,69.19
2018-12-27T20:58:11.420Z,69.13
2018-12-27T21:00:39.971Z,69.07
2018-12-27T21:03:08.432Z,69.05
2018-12-27T21:05:37.001Z,69.05
2018-12-27T21:08:05.515Z,69.13
2018-12-27T21:10:34.074Z,69.02
2018-12-27T21:13:42.635Z,68.94
2018-12-27T21:16:11.142Z,69.01
2018-12-27T21:18:58.966Z,69.01
2018-12-27T21:21:46.858Z,69.12
2018-12-27T21:26:49.770Z,69.18
2018-12-27T21:31:52.448Z,69.34
2018-12-27T21:36:55.558Z,69.49
2018-12-27T21:39:24.061Z,69.74
2018-12-27T21:41:52.590Z,69.82
2018-12-27T21:44:21.089Z,69.78
2018-12-27T21:46:49.596Z,69.63
2018-12-27T21:51:52.480Z,69.76
2018-12-27T21:54:21.003Z,69.81
2018-12-27T21:56:49.594Z,70.01
2018-12-27T21:59:18.100Z,70.13
2018-12-27T22:01:46.664Z,70.14
2018-12-27T22:04:15.166Z,70.16
2018-12-27T22:06:43.660Z,70.13
2018-12-27T22:11:45.854Z,69.94
2018-12-27T22:14:14.356Z,69.91
2018-12-27T22:16:42.879Z,69.84
2018-12-27T22:19:11.387Z,70.02
2018-12-27T22:21:39.886Z,69.94
2018-12-27T22:26:42.816Z,70.00
2018-12-27T22:31:45.602Z,70.05
2018-12-27T22:36:48.666Z,70.44
2018-12-27T22:39:17.160Z,70.35
2018-12-27T22:44:19.356Z,70.30
2018-12-27T22:46:47.858Z,70.23
2018-12-27T22:51:50.761Z,70.28
2018-12-27T22:56:53.774Z,70.43
2018-12-27T23:01:56.826Z,70.75
2018-12-27T23:04:25.330Z,70.86
2018-12-27T23:09:27.557Z,70.79
2018-12-27T23:11:55.994Z,70.80
2018-12-27T23:16:58.195Z,70.80
2018-12-27T23:19:26.692Z,70.78
2018-12-27T23:21:55.231Z,70.87
2018-12-27T23:24:23.738Z,70.89
2018-12-27T23:26:52.244Z,70.72
2018-12-27T23:29:20.874Z,70.58
2018-12-27T23:31:49.367Z,70.52
2018-12-27T23:34:17.880Z,70.41
2018-12-27T23:36:46.422Z,70.51
2018-12-27T23:39:34.258Z,70.68
2018-12-27T23:42:02.821Z,70.85
2018-12-27T23:44:31.320Z,70.98
2018-12-27T23:46:59.822Z,71.05
2018-12-27T23:49:28.337Z,71.11
2018-12-27T23:51:56.835Z,71.02
2018-12-27T23:54:25.337Z,71.04
2018-12-27T23:59:27.817Z,70.91
